Home > Products > Valid Products > MTR

000
SAUS45 KREV 231353
MTRDRA
METAR KDRA 231352Z AUTO 08007KT 10SM CLR 11/M10 A2995 RMK AO2 SLP115
T01061100





000
SAUS45 KREV 231253
MTRDRA
METAR KDRA 231252Z AUTO 04011KT 10SM CLR 11/M10 A2993 RMK AO2 SLP105
T01111100





000
SAUS45 KREV 231153
MTRDRA
METAR KDRA 231152Z AUTO 03015G21KT 10SM CLR 11/M11 A2991 RMK AO2
SLP095 T01111106 10150 20106 53009





000
SAUS45 KREV 231053
MTRDRA
METAR KDRA 231052Z AUTO 05007KT 10SM CLR 11/M12 A2990 RMK AO2 SLP092
T01111122





000
SAUS45 KREV 230953
MTRDRA
METAR KDRA 230952Z AUTO 03007KT 10SM CLR 12/M12 A2989 RMK AO2 SLP088
T01171122





000
SAUS45 KREV 230853
MTRDRA
METAR KDRA 230852Z AUTO 06004KT 10SM CLR 12/M12 A2988 RMK AO2 SLP084
T01221122 51013





000
SAUS45 KREV 230754
MTRDRA
METAR KDRA 230752Z AUTO 05007KT 10SM CLR 13/M13 A2987 RMK AO2 SLP080
T01281128 402560128





000
SAUS45 KREV 230654
MTRDRA
METAR KDRA 230652Z AUTO 03013G19KT 10SM CLR 14/M14 A2986 RMK AO2
SLP076 T01391139





000
SAUS45 KREV 230554
MTRDRA
METAR KDRA 230552Z AUTO 02015KT 10SM CLR 14/M16 A2984 RMK AO2 SLP067
T01441156 10233 20144 51034





000
SAUS45 KREV 230454
MTRDRA
METAR KDRA 230452Z AUTO 02011G17KT 10SM CLR 17/M22 A2982 RMK AO2
SLP060 T01671217





000
SAUS45 KREV 230354
MTRDRA
METAR KDRA 230352Z AUTO 29003KT 10SM CLR 17/M15 A2977 RMK AO2 SLP046
T01671150





000
SAUS45 KREV 230254
MTRDRA
METAR KDRA 230252Z AUTO 24010KT 10SM CLR 19/M12 A2973 RMK AO2 SLP029
T01891122 53013





000
SAUS45 KREV 230154
MTRDRA
METAR KDRA 230152Z AUTO 21013G26KT 10SM CLR 21/M14 A2970 RMK AO2 PK
WND 19029/0109 SLP015 T02061139





000
SAUS45 KREV 230054
MTRDRA
METAR KDRA 230052Z AUTO 21016G23KT 10SM CLR 22/M14 A2968 RMK AO2 PK
WND 21033/2354 SLP011 T02171144





000
SAUS45 KREV 222354
MTRDRA
METAR KDRA 222352Z AUTO 23022G29KT 10SM CLR 23/M14 A2969 RMK AO2 PK
WND 21036/2258 SLP010 T02331139 10256 20228 55000





000
SAUS45 KREV 222253
MTRDRA
METAR KDRA 222252Z AUTO 21020G36KT 10SM CLR 23/M17 A2967 RMK AO2 PK
WND 23038/2205 SLP002 T02331167





000
SAUS45 KREV 222154
MTRDRA
METAR KDRA 222152Z AUTO 20024G37KT 10SM CLR 24/M18 A2969 RMK AO2 PK
WND 20043/2057 SLP009 T02391183





000
SAUS45 KREV 222054
MTRDRA
METAR KDRA 222052Z AUTO 21033G45KT 10SM CLR 24/M13 A2969 RMK AO2 PK
WND 19045/1959 SLP007 T02441133 58018





000
SAUS45 KREV 221954
MTRDRA
METAR KDRA 221952Z AUTO 18028G38KT 10SM CLR 24/M06 A2970 RMK AO2 PK
WND 20043/1924 SLP011 T02441061





000
SAUS45 KREV 221854
MTRDRA
METAR KDRA 221852Z AUTO 18031G39KT 10SM CLR 24/M05 A2974 RMK AO2 PK
WND 20044/1828 SLP024 T02441050





000
SAUS45 KREV 221754
MTRDRA
METAR KDRA 221752Z AUTO 19024G33KT 10SM CLR 24/M07 A2975 RMK AO2 PK
WND 17046/1731 SLP028 T02391072 10239 20206 55003





000
SAUS45 KREV 221654
MTRDRA
METAR KDRA 221652Z AUTO 19025G37KT 10SM CLR 22/M09 A2974 RMK AO2 PK
WND 19043/1634 SLP028 T02221089





000
SAUS45 KREV 221554
MTRDRA
METAR KDRA 221552Z AUTO 20029G37KT 10SM CLR 22/M12 A2973 RMK AO2 PK
WND 18041/1538 SLP024 T02221122





000
SAUS45 KREV 221454
MTRDRA
METAR KDRA 221452Z AUTO 21022G33KT 10SM CLR 21/M12 A2976 RMK AO2 PK
WND 18037/1421 SLP032 T02111117 56014





000
SAUS45 KREV 221354
MTRDRA
METAR KDRA 221352Z AUTO 20027G33KT 10SM CLR 21/M10 A2976 RMK AO2 PK
WND 19033/1352 SLP033 T02111100





000
SAUS45 KREV 221254
MTRDRA
METAR KDRA 221252Z AUTO 19022G30KT 10SM CLR 21/M07 A2977 RMK AO2 PK
WND 19032/1237 SLP035 T02061067





000
SAUS45 KREV 221154
MTRDRA
METAR KDRA 221152Z AUTO 19014G21KT 10SM CLR 21/M07 A2980 RMK AO2
SLP045 T02111072 10244 20211 57013





000
SAUS45 KREV 221054
MTRDRA
METAR KDRA 221052Z AUTO 19018G24KT 10SM CLR 22/M06 A2982 RMK AO2
SLP050 T02171061





000
SAUS45 KREV 220953
MTRDRA
METAR KDRA 220952Z AUTO 19014G22KT 10SM CLR 22/M06 A2983 RMK AO2
SLP052 T02221061





000
SAUS45 KREV 220853
MTRDRA
METAR KDRA 220852Z AUTO 18014G23KT 10SM CLR 23/M07 A2984 RMK AO2
SLP057 T02281067 58012





000
SAUS45 KREV 220754
MTRDRA
METAR KDRA 220752Z AUTO 18006KT 10SM CLR 23/M06 A2986 RMK AO2 SLP063
T02281056 403110122





000
SAUS45 KREV 220654
MTRDRA
METAR KDRA 220652Z AUTO 19009KT 10SM CLR 23/M07 A2987 RMK AO2 SLP067
T02331072





000
SAUS45 KREV 220554
MTRDRA
METAR KDRA 220552Z AUTO 18008KT 10SM CLR 24/M09 A2988 RMK AO2 SLP071
T02391089 10294 20222 58001





000
SAUS45 KREV 220454
MTRDRA
METAR KDRA 220452Z AUTO 23011KT 10SM CLR 24/M08 A2989 RMK AO2 SLP074
T02391083





000
SAUS45 KREV 220354
MTRDRA
METAR KDRA 220352Z AUTO 22009KT 10SM CLR 25/M08 A2989 RMK AO2 SLP077
T02501078





000
SAUS45 KREV 220254
MTRDRA
METAR KDRA 220252Z AUTO 21013G19KT 10SM CLR 27/M06 A2988 RMK AO2
SLP077 T02671056 56012





000
SAUS45 KREV 220154
MTRDRA
METAR KDRA 220152Z AUTO 18013G19KT 10SM CLR 27/M05 A2989 RMK AO2
SLP082 T02721050





000
SAUS45 KREV 220054
MTRDRA
METAR KDRA 220052Z AUTO 18012G21KT 10SM CLR 28/M06 A2991 RMK AO2 PK
WND 17028/0009 SLP088 T02831056





000
SAUS45 KREV 212354
MTRDRA
METAR KDRA 212352Z AUTO 19016G19KT 10SM CLR 29/M07 A2992 RMK AO2 PK
WND 22029/2302 SLP091 T02941072 10311 20283 56021





000
SAUS45 KREV 212254
MTRDRA
METAR KDRA 212252Z AUTO 21018G26KT 10SM CLR 30/M07 A2994 RMK AO2 PK
WND 22034/2216 SLP099 T03001067





000
SAUS45 KREV 212154
MTRDRA
METAR KDRA 212152Z AUTO 19024G31KT 10SM CLR 31/M06 A2997 RMK AO2 PK
WND 19031/2152 SLP106 T03061056





000
SAUS45 KREV 212054
MTRDRA
METAR KDRA 212052Z AUTO 18019G28KT 10SM CLR 30/M06 A2999 RMK AO2 PK
WND 21030/2041 SLP113 T03001056 58022





000
SAUS45 KREV 211954
MTRDRA
METAR KDRA 211952Z AUTO 17012G24KT 10SM CLR 30/M05 A3002 RMK AO2 PK
WND 19028/1857 SLP123 T03001050





000
SAUS45 KREV 211854
MTRDRA
METAR KDRA 211852Z AUTO 23018G23KT 10SM CLR 29/M01 A3005 RMK AO2 PK
WND 22027/1841 SLP134 T02891011





000
SAUS45 KREV 211754
MTRDRA
METAR KDRA 211752Z AUTO 22015G19KT 10SM CLR 28/M02 A3007 RMK AO2
SLP138 T02831017 10283 20122 58004





000
SAUS45 KREV 211654
MTRDRA
METAR KDRA 211652Z AUTO VRB04KT 10SM CLR 26/M02 A3007 RMK AO2 SLP142
T02561017





000
SAUS45 KREV 211554
MTRDRA
METAR KDRA 211552Z AUTO 00000KT 10SM CLR 22/M02 A3007 RMK AO2 SLP142
T02171022





000
SAUS45 KREV 211453
MTRDRA
METAR KDRA 211452Z AUTO 00000KT 10SM CLR 18/M02 A3008 RMK AO2 SLP146
T01831022 51010





000
SAUS45 KREV 211353
MTRDRA
METAR KDRA 211352Z AUTO 00000KT 10SM CLR 14/M03 A3007 RMK AO2 SLP146
T01441028





000
SAUS45 KREV 211253
MTRDRA
METAR KDRA 211252Z AUTO VRB03KT 10SM CLR 13/M04 A3006 RMK AO2 SLP139
T01331039





000
SAUS45 KREV 211153
MTRDRA
METAR KDRA 211152Z AUTO 05004KT 10SM CLR 16/M04 A3004 RMK AO2 SLP133
T01611039 10194 20144 55000





000
SAUS45 KREV 211053
MTRDRA
METAR KDRA 211052Z AUTO 05006KT 10SM CLR 14/M04 A3004 RMK AO2 SLP134
T01441039





000
SAUS45 KREV 210953
MTRDRA
METAR KDRA 210952Z AUTO 07005KT 10SM CLR 16/M04 A3004 RMK AO2 SLP131
T01611039





000
SAUS45 KREV 210853
MTRDRA
METAR KDRA 210852Z AUTO 02007KT 10SM CLR 17/M03 A3005 RMK AO2 SLP133
T01721028 50001





000
SAUS45 KREV 210754
MTRDRA
METAR KDRA 210752Z AUTO 08003KT 10SM CLR 18/M03 A3005 RMK AO2 SLP136
T01831033 402940117





000
SAUS45 KREV 210654
MTRDRA
METAR KDRA 210652Z AUTO 05005KT 10SM CLR 17/M03 A3005 RMK AO2 SLP136
T01721033





000
SAUS45 KREV 210554
MTRDRA
METAR KDRA 210552Z AUTO 03008KT 10SM CLR 19/M03 A3004 RMK AO2 SLP134
T01891028 10289 20189 51011





000
SAUS45 KREV 210454
MTRDRA
METAR KDRA 210452Z AUTO 04003KT 10SM CLR 21/M03 A3004 RMK AO2 SLP132
T02111033





000
SAUS45 KREV 210354
MTRDRA
METAR KDRA 210352Z AUTO 22008KT 10SM CLR 24/M03 A3002 RMK AO2 SLP126
T02391033





000
SAUS45 KREV 210254
MTRDRA
METAR KDRA 210252Z AUTO 22011KT 10SM CLR 25/M03 A3001 RMK AO2 SLP122
T02501033 53001





000
SAUS45 KREV 210154
MTRDRA
METAR KDRA 210152Z AUTO 24010KT 10SM CLR 27/M04 A2999 RMK AO2 SLP118
T02671039





000
SAUS45 KREV 210054
MTRDRA
METAR KDRA 210052Z AUTO 27009KT 10SM CLR 28/M04 A3000 RMK AO2 SLP122
T02831044





000
SAUS45 KREV 202354
MTRDRA
METAR KDRA 202352Z AUTO 23011G16KT 10SM CLR 29/M03 A3000 RMK AO2
SLP121 T02891028 10294 20239 56016





000
SAUS45 KREV 202254
MTRDRA
METAR KDRA 202252Z AUTO 22014G18KT 10SM CLR 29/M02 A3002 RMK AO2
SLP124 T02891022





000
SAUS45 KREV 202154
MTRDRA
METAR KDRA 202152Z AUTO 23014G20KT 10SM CLR 29/M02 A3004 RMK AO2
SLP130 T02891022





000
SAUS45 KREV 202054
MTRDRA
METAR KDRA 202052Z AUTO 25010KT 10SM CLR 28/M01 A3006 RMK AO2 SLP138
T02781006 58014





000
SAUS45 KREV 201954
MTRDRA
METAR KDRA 201952Z AUTO 23008G15KT 10SM CLR 27/01 A3007 RMK AO2
SLP144 T02720006





000
SAUS45 KREV 201854
MTRDRA
METAR KDRA 201852Z AUTO 25010KT 10SM CLR 26/02 A3009 RMK AO2 SLP150
T02610017





000
SAUS45 KREV 201754
MTRDRA
METAR KDRA 201752Z AUTO 23009KT 10SM CLR 24/02 A3010 RMK AO2 SLP155
T02390022 10239 20117 51006





000
SAUS45 KREV 201654
MTRDRA
METAR KDRA 201652Z AUTO VRB04KT 10SM CLR 23/02 A3010 RMK AO2 SLP151
T02280017





000
SAUS45 KREV 201554
MTRDRA
METAR KDRA 201552Z AUTO 22003KT 10SM CLR 21/01 A3009 RMK AO2 SLP152
T02060006





000
SAUS45 KREV 201454
MTRDRA
METAR KDRA 201452Z AUTO 00000KT 10SM CLR 17/00 A3008 RMK AO2 SLP151
T01720000 53017





    US Dept of Commerce
    National Oceanic and Atmospheric Administration
    National Weather Service
    1325 East West Highway
    Silver Spring, MD 20910
    Page Author: NWS Internet Services Team
Disclaimer
Information Quality
Credits
Glossary
Privacy Policy
Freedom of Information Act (FOIA)
About Us
Career Opportunities